sensor_id;sensor_type;location;lat;lon;timestamp;P1;durP1;ratioP1;P2;durP2;ratioP2
22268;SDS011;11303;50.772;19.670;2023-05-25T00:00:00;36.13;;;21.08;;
22268;SDS011;11303;50.772;19.670;2023-05-25T00:02:02;37.80;;;24.80;;
22268;SDS011;11303;50.772;19.670;2023-05-25T00:04:07;44.08;;;28.00;;
22268;SDS011;11303;50.772;19.670;2023-05-25T00:06:10;42.60;;;25.23;;
22268;SDS011;11303;50.772;19.670;2023-05-25T00:08:12;40.28;;;26.02;;
22268;SDS011;11303;50.772;19.670;2023-05-25T00:10:14;43.75;;;25.85;;
22268;SDS011;11303;50.772;19.670;2023-05-25T00:12:15;42.22;;;25.02;;
22268;SDS011;11303;50.772;19.670;2023-05-25T00:14:17;40.03;;;24.58;;
22268;SDS011;11303;50.772;19.670;2023-05-25T00:16:19;40.72;;;26.88;;
22268;SDS011;11303;50.772;19.670;2023-05-25T00:18:21;43.67;;;27.25;;
22268;SDS011;11303;50.772;19.670;2023-05-25T00:20:25;42.63;;;26.73;;
22268;SDS011;11303;50.772;19.670;2023-05-25T00:22:27;40.83;;;26.65;;
22268;SDS011;11303;50.772;19.670;2023-05-25T00:24:29;45.53;;;28.05;;
22268;SDS011;11303;50.772;19.670;2023-05-25T00:26:31;44.08;;;27.02;;
22268;SDS011;11303;50.772;19.670;2023-05-25T00:28:32;50.38;;;28.23;;
22268;SDS011;11303;50.772;19.670;2023-05-25T00:30:34;46.83;;;27.42;;
22268;SDS011;11303;50.772;19.670;2023-05-25T00:32:36;40.88;;;27.42;;
22268;SDS011;11303;50.772;19.670;2023-05-25T00:34:37;47.47;;;28.90;;
22268;SDS011;11303;50.772;19.670;2023-05-25T00:36:39;41.35;;;24.52;;
22268;SDS011;11303;50.772;19.670;2023-05-25T00:38:43;41.58;;;27.02;;
22268;SDS011;11303;50.772;19.670;2023-05-25T00:40:45;44.85;;;28.67;;
22268;SDS011;11303;50.772;19.670;2023-05-25T00:42:46;42.20;;;26.23;;
22268;SDS011;11303;50.772;19.670;2023-05-25T00:44:48;48.15;;;28.52;;
22268;SDS011;11303;50.772;19.670;2023-05-25T00:46:51;39.30;;;27.13;;
22268;SDS011;11303;50.772;19.670;2023-05-25T00:48:53;40.03;;;26.38;;
22268;SDS011;11303;50.772;19.670;2023-05-25T00:50:56;45.65;;;27.13;;
22268;SDS011;11303;50.772;19.670;2023-05-25T00:52:58;39.78;;;26.70;;
22268;SDS011;11303;50.772;19.670;2023-05-25T00:54:59;43.88;;;27.25;;
22268;SDS011;11303;50.772;19.670;2023-05-25T00:57:03;40.90;;;27.83;;
22268;SDS011;11303;50.772;19.670;2023-05-25T00:59:07;41.10;;;26.80;;
22268;SDS011;11303;50.772;19.670;2023-05-25T01:01:12;40.15;;;26.50;;
22268;SDS011;11303;50.772;19.670;2023-05-25T01:03:17;42.25;;;27.38;;
22268;SDS011;11303;50.772;19.670;2023-05-25T01:05:23;48.90;;;26.25;;
22268;SDS011;11303;50.772;19.670;2023-05-25T01:07:29;44.10;;;27.85;;
22268;SDS011;11303;50.772;19.670;2023-05-25T01:09:33;41.97;;;26.65;;
22268;SDS011;11303;50.772;19.670;2023-05-25T01:11:39;39.15;;;26.67;;
22268;SDS011;11303;50.772;19.670;2023-05-25T01:13:44;41.75;;;26.48;;
22268;SDS011;11303;50.772;19.670;2023-05-25T01:15:46;44.22;;;27.55;;
22268;SDS011;11303;50.772;19.670;2023-05-25T01:17:48;44.85;;;26.42;;
22268;SDS011;11303;50.772;19.670;2023-05-25T01:19:55;43.25;;;26.17;;
22268;SDS011;11303;50.772;19.670;2023-05-25T01:24:58;42.83;;;27.05;;
22268;SDS011;11303;50.772;19.670;2023-05-25T01:27:08;41.42;;;26.00;;
22268;SDS011;11303;50.772;19.670;2023-05-25T01:29:13;45.60;;;28.73;;
22268;SDS011;11303;50.772;19.670;2023-05-25T01:31:16;48.65;;;26.90;;
22268;SDS011;11303;50.772;19.670;2023-05-25T01:33:21;42.42;;;26.75;;
22268;SDS011;11303;50.772;19.670;2023-05-25T01:35:24;55.33;;;27.13;;
22268;SDS011;11303;50.772;19.670;2023-05-25T01:37:26;39.33;;;26.33;;
22268;SDS011;11303;50.772;19.670;2023-05-25T01:39:27;39.03;;;27.50;;
22268;SDS011;11303;50.772;19.670;2023-05-25T01:41:29;39.88;;;25.83;;
22268;SDS011;11303;50.772;19.670;2023-05-25T01:43:31;49.28;;;28.63;;
22268;SDS011;11303;50.772;19.670;2023-05-25T01:45:33;41.88;;;28.42;;
22268;SDS011;11303;50.772;19.670;2023-05-25T01:55:07;38.55;;;24.83;;
22268;SDS011;11303;50.772;19.670;2023-05-25T01:57:12;47.25;;;26.75;;
22268;SDS011;11303;50.772;19.670;2023-05-25T01:59:18;39.60;;;25.55;;
22268;SDS011;11303;50.772;19.670;2023-05-25T02:01:21;39.58;;;26.25;;
22268;SDS011;11303;50.772;19.670;2023-05-25T02:03:24;42.30;;;25.10;;
22268;SDS011;11303;50.772;19.670;2023-05-25T02:05:25;42.70;;;25.73;;
22268;SDS011;11303;50.772;19.670;2023-05-25T02:07:28;43.00;;;25.85;;
22268;SDS011;11303;50.772;19.670;2023-05-25T02:09:29;43.22;;;26.08;;
22268;SDS011;11303;50.772;19.670;2023-05-25T02:11:31;46.28;;;25.33;;
22268;SDS011;11303;50.772;19.670;2023-05-25T02:13:32;43.45;;;26.63;;
22268;SDS011;11303;50.772;19.670;2023-05-25T02:15:34;38.15;;;25.58;;
22268;SDS011;11303;50.772;19.670;2023-05-25T02:17:36;43.03;;;25.73;;
22268;SDS011;11303;50.772;19.670;2023-05-25T02:19:38;45.78;;;25.75;;
22268;SDS011;11303;50.772;19.670;2023-05-25T02:21:40;48.03;;;26.58;;
22268;SDS011;11303;50.772;19.670;2023-05-25T02:23:42;41.95;;;25.70;;
22268;SDS011;11303;50.772;19.670;2023-05-25T02:25:44;39.90;;;25.27;;
22268;SDS011;11303;50.772;19.670;2023-05-25T02:27:46;44.03;;;26.55;;
22268;SDS011;11303;50.772;19.670;2023-05-25T02:29:48;38.72;;;25.38;;
22268;SDS011;11303;50.772;19.670;2023-05-25T02:31:50;46.75;;;24.58;;
22268;SDS011;11303;50.772;19.670;2023-05-25T02:33:51;38.05;;;26.02;;
22268;SDS011;11303;50.772;19.670;2023-05-25T02:35:53;39.72;;;24.92;;
22268;SDS011;11303;50.772;19.670;2023-05-25T02:37:54;37.97;;;24.60;;
22268;SDS011;11303;50.772;19.670;2023-05-25T02:39:56;39.92;;;25.98;;
22268;SDS011;11303;50.772;19.670;2023-05-25T02:41:58;35.88;;;25.35;;
22268;SDS011;11303;50.772;19.670;2023-05-25T02:43:59;39.10;;;25.02;;
22268;SDS011;11303;50.772;19.670;2023-05-25T02:46:01;41.38;;;25.50;;
22268;SDS011;11303;50.772;19.670;2023-05-25T02:48:02;45.47;;;26.67;;
22268;SDS011;11303;50.772;19.670;2023-05-25T02:50:04;44.40;;;26.67;;
22268;SDS011;11303;50.772;19.670;2023-05-25T02:52:06;45.35;;;27.58;;
22268;SDS011;11303;50.772;19.670;2023-05-25T02:54:08;44.90;;;25.67;;
22268;SDS011;11303;50.772;19.670;2023-05-25T02:56:09;45.88;;;27.17;;
22268;SDS011;11303;50.772;19.670;2023-05-25T02:58:11;43.45;;;26.23;;
22268;SDS011;11303;50.772;19.670;2023-05-25T03:00:13;46.78;;;26.90;;
22268;SDS011;11303;50.772;19.670;2023-05-25T03:02:15;42.25;;;27.13;;
22268;SDS011;11303;50.772;19.670;2023-05-25T03:04:18;47.13;;;25.70;;
22268;SDS011;11303;50.772;19.670;2023-05-25T03:06:20;41.40;;;25.42;;
22268;SDS011;11303;50.772;19.670;2023-05-25T03:08:23;43.50;;;26.75;;
22268;SDS011;11303;50.772;19.670;2023-05-25T03:10:24;46.45;;;26.73;;
22268;SDS011;11303;50.772;19.670;2023-05-25T03:12:26;45.03;;;27.17;;
22268;SDS011;11303;50.772;19.670;2023-05-25T03:14:27;46.47;;;28.17;;
22268;SDS011;11303;50.772;19.670;2023-05-25T03:16:29;44.67;;;26.77;;
22268;SDS011;11303;50.772;19.670;2023-05-25T03:18:31;45.45;;;28.95;;
22268;SDS011;11303;50.772;19.670;2023-05-25T03:20:33;44.38;;;28.77;;
22268;SDS011;11303;50.772;19.670;2023-05-25T03:22:35;51.38;;;28.98;;
22268;SDS011;11303;50.772;19.670;2023-05-25T03:24:37;45.22;;;28.75;;
22268;SDS011;11303;50.772;19.670;2023-05-25T03:26:41;50.42;;;29.35;;
22268;SDS011;11303;50.772;19.670;2023-05-25T03:28:43;49.88;;;29.80;;
22268;SDS011;11303;50.772;19.670;2023-05-25T03:30:45;48.45;;;28.27;;
22268;SDS011;11303;50.772;19.670;2023-05-25T03:32:47;45.13;;;28.00;;
22268;SDS011;11303;50.772;19.670;2023-05-25T03:34:49;42.47;;;27.17;;
22268;SDS011;11303;50.772;19.670;2023-05-25T03:36:51;42.10;;;27.08;;
22268;SDS011;11303;50.772;19.670;2023-05-25T03:38:54;46.10;;;28.45;;
22268;SDS011;11303;50.772;19.670;2023-05-25T03:40:56;42.75;;;28.00;;
22268;SDS011;11303;50.772;19.670;2023-05-25T03:42:57;44.08;;;27.27;;
22268;SDS011;11303;50.772;19.670;2023-05-25T03:44:59;42.20;;;26.48;;
22268;SDS011;11303;50.772;19.670;2023-05-25T03:47:01;42.15;;;27.80;;
22268;SDS011;11303;50.772;19.670;2023-05-25T03:49:02;43.08;;;27.45;;
22268;SDS011;11303;50.772;19.670;2023-05-25T03:51:04;37.90;;;25.75;;
22268;SDS011;11303;50.772;19.670;2023-05-25T03:53:06;40.15;;;26.52;;
22268;SDS011;11303;50.772;19.670;2023-05-25T03:55:08;44.75;;;27.05;;
22268;SDS011;11303;50.772;19.670;2023-05-25T03:57:10;37.25;;;24.45;;
22268;SDS011;11303;50.772;19.670;2023-05-25T03:59:12;44.00;;;26.95;;
22268;SDS011;11303;50.772;19.670;2023-05-25T04:01:13;37.17;;;25.48;;
22268;SDS011;11303;50.772;19.670;2023-05-25T04:03:17;40.30;;;25.90;;
22268;SDS011;11303;50.772;19.670;2023-05-25T04:05:19;42.58;;;26.02;;
22268;SDS011;11303;50.772;19.670;2023-05-25T04:07:20;38.42;;;27.00;;
22268;SDS011;11303;50.772;19.670;2023-05-25T04:09:22;39.92;;;25.52;;
22268;SDS011;11303;50.772;19.670;2023-05-25T04:11:24;36.85;;;26.20;;
22268;SDS011;11303;50.772;19.670;2023-05-25T04:13:25;43.78;;;26.42;;
22268;SDS011;11303;50.772;19.670;2023-05-25T04:15:27;39.45;;;25.42;;
22268;SDS011;11303;50.772;19.670;2023-05-25T04:17:29;37.25;;;25.05;;
22268;SDS011;11303;50.772;19.670;2023-05-25T04:19:31;39.28;;;24.77;;
22268;SDS011;11303;50.772;19.670;2023-05-25T04:21:32;36.45;;;24.45;;
22268;SDS011;11303;50.772;19.670;2023-05-25T04:23:34;39.05;;;24.20;;
22268;SDS011;11303;50.772;19.670;2023-05-25T04:25:36;35.50;;;24.58;;
22268;SDS011;11303;50.772;19.670;2023-05-25T04:27:37;35.63;;;23.70;;
22268;SDS011;11303;50.772;19.670;2023-05-25T04:29:40;35.65;;;24.17;;
22268;SDS011;11303;50.772;19.670;2023-05-25T04:31:42;35.28;;;24.25;;
22268;SDS011;11303;50.772;19.670;2023-05-25T04:33:47;33.00;;;23.92;;
22268;SDS011;11303;50.772;19.670;2023-05-25T04:35:49;36.35;;;24.42;;
22268;SDS011;11303;50.772;19.670;2023-05-25T04:37:51;37.63;;;24.20;;
22268;SDS011;11303;50.772;19.670;2023-05-25T04:39:54;35.80;;;24.20;;
22268;SDS011;11303;50.772;19.670;2023-05-25T04:41:57;36.25;;;24.77;;
22268;SDS011;11303;50.772;19.670;2023-05-25T04:43:59;42.97;;;25.88;;
22268;SDS011;11303;50.772;19.670;2023-05-25T04:46:10;38.25;;;24.60;;
22268;SDS011;11303;50.772;19.670;2023-05-25T04:48:14;39.33;;;24.05;;
22268;SDS011;11303;50.772;19.670;2023-05-25T04:50:15;36.47;;;24.60;;
22268;SDS011;11303;50.772;19.670;2023-05-25T04:52:17;40.08;;;24.88;;
22268;SDS011;11303;50.772;19.670;2023-05-25T04:54:18;33.10;;;24.30;;
22268;SDS011;11303;50.772;19.670;2023-05-25T04:56:20;37.25;;;23.92;;
22268;SDS011;11303;50.772;19.670;2023-05-25T04:58:25;39.75;;;25.13;;
22268;SDS011;11303;50.772;19.670;2023-05-25T05:00:29;35.80;;;25.23;;
22268;SDS011;11303;50.772;19.670;2023-05-25T05:02:31;36.25;;;24.95;;
22268;SDS011;11303;50.772;19.670;2023-05-25T05:04:33;39.08;;;24.85;;
22268;SDS011;11303;50.772;19.670;2023-05-25T05:06:34;35.13;;;25.23;;
22268;SDS011;11303;50.772;19.670;2023-05-25T05:08:39;34.72;;;24.38;;
22268;SDS011;11303;50.772;19.670;2023-05-25T05:10:41;40.20;;;24.38;;
22268;SDS011;11303;50.772;19.670;2023-05-25T05:12:43;38.53;;;24.38;;
22268;SDS011;11303;50.772;19.670;2023-05-25T05:14:46;38.55;;;24.33;;
22268;SDS011;11303;50.772;19.670;2023-05-25T05:16:47;36.33;;;24.80;;
22268;SDS011;11303;50.772;19.670;2023-05-25T05:18:49;37.58;;;23.92;;
22268;SDS011;11303;50.772;19.670;2023-05-25T05:20:50;30.10;;;22.85;;
22268;SDS011;11303;50.772;19.670;2023-05-25T05:22:52;33.80;;;23.88;;
22268;SDS011;11303;50.772;19.670;2023-05-25T05:24:54;33.95;;;22.20;;
22268;SDS011;11303;50.772;19.670;2023-05-25T05:26:56;27.88;;;21.27;;
22268;SDS011;11303;50.772;19.670;2023-05-25T05:28:59;32.58;;;21.60;;
22268;SDS011;11303;50.772;19.670;2023-05-25T05:31:01;28.48;;;20.92;;
22268;SDS011;11303;50.772;19.670;2023-05-25T05:33:02;32.13;;;21.60;;
22268;SDS011;11303;50.772;19.670;2023-05-25T05:35:04;30.40;;;21.92;;
22268;SDS011;11303;50.772;19.670;2023-05-25T05:37:06;35.28;;;23.23;;
22268;SDS011;11303;50.772;19.670;2023-05-25T05:39:08;37.45;;;24.95;;
22268;SDS011;11303;50.772;19.670;2023-05-25T05:41:09;39.50;;;28.27;;
22268;SDS011;11303;50.772;19.670;2023-05-25T05:43:14;40.28;;;26.90;;
22268;SDS011;11303;50.772;19.670;2023-05-25T05:45:16;42.30;;;26.13;;
22268;SDS011;11303;50.772;19.670;2023-05-25T05:47:17;38.53;;;26.83;;
22268;SDS011;11303;50.772;19.670;2023-05-25T05:49:19;37.20;;;27.33;;
22268;SDS011;11303;50.772;19.670;2023-05-25T05:51:21;44.33;;;28.35;;
22268;SDS011;11303;50.772;19.670;2023-05-25T05:53:22;41.90;;;26.83;;
22268;SDS011;11303;50.772;19.670;2023-05-25T05:55:24;41.72;;;26.73;;
22268;SDS011;11303;50.772;19.670;2023-05-25T05:57:26;39.25;;;27.70;;
22268;SDS011;11303;50.772;19.670;2023-05-25T05:59:28;43.85;;;27.33;;
22268;SDS011;11303;50.772;19.670;2023-05-25T06:01:30;41.40;;;27.02;;
22268;SDS011;11303;50.772;19.670;2023-05-25T06:03:33;44.47;;;28.05;;
22268;SDS011;11303;50.772;19.670;2023-05-25T06:05:34;44.03;;;27.95;;
22268;SDS011;11303;50.772;19.670;2023-05-25T06:07:36;43.90;;;28.02;;
22268;SDS011;11303;50.772;19.670;2023-05-25T06:09:38;51.30;;;27.70;;
22268;SDS011;11303;50.772;19.670;2023-05-25T06:11:40;48.33;;;27.20;;
22268;SDS011;11303;50.772;19.670;2023-05-25T06:13:42;38.58;;;27.60;;
22268;SDS011;11303;50.772;19.670;2023-05-25T06:15:46;42.97;;;28.52;;
22268;SDS011;11303;50.772;19.670;2023-05-25T06:17:48;47.15;;;29.40;;
22268;SDS011;11303;50.772;19.670;2023-05-25T06:19:49;50.72;;;31.70;;
22268;SDS011;11303;50.772;19.670;2023-05-25T06:21:51;51.10;;;31.38;;
22268;SDS011;11303;50.772;19.670;2023-05-25T06:23:53;54.53;;;33.15;;
22268;SDS011;11303;50.772;19.670;2023-05-25T06:25:54;61.40;;;33.63;;
22268;SDS011;11303;50.772;19.670;2023-05-25T06:27:56;50.92;;;32.88;;
22268;SDS011;11303;50.772;19.670;2023-05-25T06:29:58;52.00;;;33.05;;
22268;SDS011;11303;50.772;19.670;2023-05-25T06:31:59;58.88;;;35.00;;
22268;SDS011;11303;50.772;19.670;2023-05-25T06:34:01;60.55;;;37.83;;
22268;SDS011;11303;50.772;19.670;2023-05-25T06:36:03;63.00;;;36.08;;
22268;SDS011;11303;50.772;19.670;2023-05-25T06:38:05;58.90;;;34.35;;
22268;SDS011;11303;50.772;19.670;2023-05-25T06:40:08;63.70;;;35.60;;
22268;SDS011;11303;50.772;19.670;2023-05-25T06:42:10;55.63;;;30.45;;
22268;SDS011;11303;50.772;19.670;2023-05-25T06:44:12;45.60;;;26.95;;
22268;SDS011;11303;50.772;19.670;2023-05-25T06:46:13;41.08;;;25.33;;
22268;SDS011;11303;50.772;19.670;2023-05-25T06:48:19;33.97;;;20.55;;
22268;SDS011;11303;50.772;19.670;2023-05-25T06:50:21;32.50;;;21.83;;
22268;SDS011;11303;50.772;19.670;2023-05-25T06:52:22;39.10;;;22.70;;
22268;SDS011;11303;50.772;19.670;2023-05-25T06:54:24;36.20;;;22.52;;
22268;SDS011;11303;50.772;19.670;2023-05-25T06:56:26;41.08;;;24.55;;
22268;SDS011;11303;50.772;19.670;2023-05-25T06:58:28;37.90;;;24.02;;
22268;SDS011;11303;50.772;19.670;2023-05-25T07:00:30;40.45;;;24.73;;
22268;SDS011;11303;50.772;19.670;2023-05-25T07:02:32;45.60;;;26.42;;
22268;SDS011;11303;50.772;19.670;2023-05-25T07:04:35;44.28;;;29.10;;
22268;SDS011;11303;50.772;19.670;2023-05-25T07:06:37;46.22;;;28.80;;
22268;SDS011;11303;50.772;19.670;2023-05-25T07:08:39;55.25;;;29.98;;
22268;SDS011;11303;50.772;19.670;2023-05-25T07:10:40;47.08;;;29.88;;
22268;SDS011;11303;50.772;19.670;2023-05-25T07:12:42;50.70;;;32.13;;
22268;SDS011;11303;50.772;19.670;2023-05-25T07:14:44;56.83;;;34.05;;
22268;SDS011;11303;50.772;19.670;2023-05-25T07:16:48;57.28;;;34.47;;
22268;SDS011;11303;50.772;19.670;2023-05-25T07:18:50;54.92;;;33.95;;
22268;SDS011;11303;50.772;19.670;2023-05-25T07:20:51;51.65;;;33.08;;
22268;SDS011;11303;50.772;19.670;2023-05-25T07:22:53;53.03;;;32.55;;
22268;SDS011;11303;50.772;19.670;2023-05-25T07:24:55;48.30;;;30.98;;
22268;SDS011;11303;50.772;19.670;2023-05-25T07:26:57;50.45;;;30.75;;
22268;SDS011;11303;50.772;19.670;2023-05-25T07:28:59;45.83;;;29.75;;
22268;SDS011;11303;50.772;19.670;2023-05-25T07:31:01;43.60;;;27.77;;
22268;SDS011;11303;50.772;19.670;2023-05-25T07:33:03;38.75;;;25.58;;
22268;SDS011;11303;50.772;19.670;2023-05-25T07:35:04;34.28;;;22.58;;
22268;SDS011;11303;50.772;19.670;2023-05-25T07:37:06;33.47;;;23.00;;
22268;SDS011;11303;50.772;19.670;2023-05-25T07:39:08;33.80;;;22.15;;
22268;SDS011;11303;50.772;19.670;2023-05-25T07:41:11;28.45;;;20.15;;
22268;SDS011;11303;50.772;19.670;2023-05-25T07:43:13;33.53;;;19.65;;
22268;SDS011;11303;50.772;19.670;2023-05-25T07:45:15;29.75;;;20.63;;
22268;SDS011;11303;50.772;19.670;2023-05-25T07:47:17;34.25;;;19.65;;
22268;SDS011;11303;50.772;19.670;2023-05-25T07:49:18;29.95;;;20.02;;
22268;SDS011;11303;50.772;19.670;2023-05-25T07:51:20;28.75;;;19.35;;
22268;SDS011;11303;50.772;19.670;2023-05-25T07:53:23;32.30;;;19.98;;
22268;SDS011;11303;50.772;19.670;2023-05-25T07:55:25;30.33;;;19.52;;
22268;SDS011;11303;50.772;19.670;2023-05-25T07:57:27;29.50;;;18.95;;
22268;SDS011;11303;50.772;19.670;2023-05-25T07:59:29;25.05;;;18.13;;
22268;SDS011;11303;50.772;19.670;2023-05-25T08:01:31;24.48;;;17.08;;
22268;SDS011;11303;50.772;19.670;2023-05-25T08:03:33;28.38;;;17.88;;
22268;SDS011;11303;50.772;19.670;2023-05-25T08:05:49;23.92;;;16.30;;
22268;SDS011;11303;50.772;19.670;2023-05-25T08:07:51;22.10;;;15.45;;
22268;SDS011;11303;50.772;19.670;2023-05-25T08:09:52;22.42;;;14.95;;
22268;SDS011;11303;50.772;19.670;2023-05-25T08:11:54;26.02;;;15.18;;
22268;SDS011;11303;50.772;19.670;2023-05-25T08:14:16;20.00;;;13.30;;
22268;SDS011;11303;50.772;19.670;2023-05-25T08:16:17;25.70;;;13.35;;
22268;SDS011;11303;50.772;19.670;2023-05-25T08:18:19;23.95;;;14.55;;
22268;SDS011;11303;50.772;19.670;2023-05-25T08:20:21;25.92;;;13.50;;
22268;SDS011;11303;50.772;19.670;2023-05-25T08:22:24;21.38;;;13.20;;
22268;SDS011;11303;50.772;19.670;2023-05-25T08:24:26;26.95;;;13.85;;
22268;SDS011;11303;50.772;19.670;2023-05-25T08:26:27;21.10;;;14.65;;
22268;SDS011;11303;50.772;19.670;2023-05-25T08:28:45;22.08;;;14.43;;
22268;SDS011;11303;50.772;19.670;2023-05-25T08:30:47;20.58;;;14.50;;
22268;SDS011;11303;50.772;19.670;2023-05-25T08:32:48;22.05;;;14.57;;
22268;SDS011;11303;50.772;19.670;2023-05-25T08:34:50;19.52;;;13.63;;
22268;SDS011;11303;50.772;19.670;2023-05-25T08:36:52;25.52;;;16.27;;
22268;SDS011;11303;50.772;19.670;2023-05-25T08:38:54;20.27;;;14.98;;
22268;SDS011;11303;50.772;19.670;2023-05-25T08:41:05;21.88;;;15.43;;
22268;SDS011;11303;50.772;19.670;2023-05-25T08:43:07;19.33;;;14.02;;
22268;SDS011;11303;50.772;19.670;2023-05-25T08:45:09;20.20;;;14.35;;
22268;SDS011;11303;50.772;19.670;2023-05-25T08:47:31;23.00;;;16.33;;
22268;SDS011;11303;50.772;19.670;2023-05-25T08:49:37;22.48;;;15.70;;
22268;SDS011;11303;50.772;19.670;2023-05-25T08:51:47;22.92;;;16.13;;
22268;SDS011;11303;50.772;19.670;2023-05-25T08:53:51;22.17;;;16.15;;
22268;SDS011;11303;50.772;19.670;2023-05-25T08:55:54;25.35;;;16.77;;
22268;SDS011;11303;50.772;19.670;2023-05-25T08:57:59;24.20;;;16.45;;
22268;SDS011;11303;50.772;19.670;2023-05-25T09:00:06;26.63;;;16.40;;
22268;SDS011;11303;50.772;19.670;2023-05-25T09:02:56;22.55;;;16.48;;
22268;SDS011;11303;50.772;19.670;2023-05-25T09:04:54;24.13;;;17.65;;
22268;SDS011;11303;50.772;19.670;2023-05-25T09:06:56;22.95;;;18.30;;
22268;SDS011;11303;50.772;19.670;2023-05-25T09:09:10;33.90;;;23.70;;
22268;SDS011;11303;50.772;19.670;2023-05-25T09:11:12;22.60;;;17.70;;
22268;SDS011;11303;50.772;19.670;2023-05-25T09:13:22;23.10;;;17.60;;
22268;SDS011;11303;50.772;19.670;2023-05-25T09:15:24;35.42;;;19.05;;
22268;SDS011;11303;50.772;19.670;2023-05-25T09:17:26;28.90;;;18.30;;
22268;SDS011;11303;50.772;19.670;2023-05-25T09:19:28;24.33;;;18.15;;
22268;SDS011;11303;50.772;19.670;2023-05-25T09:21:30;34.10;;;19.08;;
22268;SDS011;11303;50.772;19.670;2023-05-25T09:23:32;30.38;;;20.85;;
22268;SDS011;11303;50.772;19.670;2023-05-25T09:25:35;30.50;;;19.75;;
22268;SDS011;11303;50.772;19.670;2023-05-25T09:27:38;25.88;;;18.52;;
22268;SDS011;11303;50.772;19.670;2023-05-25T09:29:41;29.40;;;19.55;;
22268;SDS011;11303;50.772;19.670;2023-05-25T09:31:42;29.67;;;20.40;;
22268;SDS011;11303;50.772;19.670;2023-05-25T09:33:44;25.45;;;18.83;;
22268;SDS011;11303;50.772;19.670;2023-05-25T09:35:46;45.42;;;19.42;;
22268;SDS011;11303;50.772;19.670;2023-05-25T09:37:48;24.70;;;19.55;;
22268;SDS011;11303;50.772;19.670;2023-05-25T09:39:50;28.17;;;19.35;;
22268;SDS011;11303;50.772;19.670;2023-05-25T09:41:52;32.10;;;19.75;;
22268;SDS011;11303;50.772;19.670;2023-05-25T09:43:54;31.90;;;18.80;;
22268;SDS011;11303;50.772;19.670;2023-05-25T09:46:10;26.27;;;18.00;;
22268;SDS011;11303;50.772;19.670;2023-05-25T09:48:11;26.42;;;18.70;;
22268;SDS011;11303;50.772;19.670;2023-05-25T09:50:14;24.88;;;17.92;;
22268;SDS011;11303;50.772;19.670;2023-05-25T09:52:16;31.38;;;18.35;;
22268;SDS011;11303;50.772;19.670;2023-05-25T09:54:17;22.15;;;16.58;;
22268;SDS011;11303;50.772;19.670;2023-05-25T09:56:20;22.92;;;15.88;;
22268;SDS011;11303;50.772;19.670;2023-05-25T09:58:22;20.17;;;16.45;;
22268;SDS011;11303;50.772;19.670;2023-05-25T10:00:26;18.65;;;15.60;;
22268;SDS011;11303;50.772;19.670;2023-05-25T10:02:28;20.35;;;15.70;;
22268;SDS011;11303;50.772;19.670;2023-05-25T10:04:30;21.92;;;15.77;;
22268;SDS011;11303;50.772;19.670;2023-05-25T10:06:32;23.95;;;15.85;;
22268;SDS011;11303;50.772;19.670;2023-05-25T10:08:34;45.72;;;18.45;;
22268;SDS011;11303;50.772;19.670;2023-05-25T10:10:36;29.92;;;18.58;;
22268;SDS011;11303;50.772;19.670;2023-05-25T10:12:39;25.02;;;18.67;;
22268;SDS011;11303;50.772;19.670;2023-05-25T10:14:42;25.52;;;17.17;;
22268;SDS011;11303;50.772;19.670;2023-05-25T10:16:45;22.10;;;15.05;;
22268;SDS011;11303;50.772;19.670;2023-05-25T10:21:18;26.75;;;16.40;;
22268;SDS011;11303;50.772;19.670;2023-05-25T10:23:22;21.08;;;15.77;;
22268;SDS011;11303;50.772;19.670;2023-05-25T10:25:30;21.20;;;15.23;;
22268;SDS011;11303;50.772;19.670;2023-05-25T10:27:38;20.52;;;15.50;;
22268;SDS011;11303;50.772;19.670;2023-05-25T10:29:42;19.50;;;14.48;;
22268;SDS011;11303;50.772;19.670;2023-05-25T10:31:44;21.70;;;14.10;;
22268;SDS011;11303;50.772;19.670;2023-05-25T10:33:48;19.80;;;15.05;;
22268;SDS011;11303;50.772;19.670;2023-05-25T10:35:53;17.77;;;13.77;;
22268;SDS011;11303;50.772;19.670;2023-05-25T10:38:11;20.23;;;13.52;;
22268;SDS011;11303;50.772;19.670;2023-05-25T10:40:13;16.50;;;13.38;;
22268;SDS011;11303;50.772;19.670;2023-05-25T10:42:17;21.48;;;13.60;;
22268;SDS011;11303;50.772;19.670;2023-05-25T10:44:19;21.52;;;13.70;;
22268;SDS011;11303;50.772;19.670;2023-05-25T10:46:21;19.23;;;13.88;;
22268;SDS011;11303;50.772;19.670;2023-05-25T10:48:23;18.25;;;13.18;;
22268;SDS011;11303;50.772;19.670;2023-05-25T10:50:35;18.30;;;13.55;;
22268;SDS011;11303;50.772;19.670;2023-05-25T10:52:37;17.35;;;13.27;;
22268;SDS011;11303;50.772;19.670;2023-05-25T10:54:39;23.58;;;13.32;;
22268;SDS011;11303;50.772;19.670;2023-05-25T10:57:06;15.57;;;12.88;;
22268;SDS011;11303;50.772;19.670;2023-05-25T10:59:14;15.18;;;12.10;;
22268;SDS011;11303;50.772;19.670;2023-05-25T11:01:25;15.25;;;12.75;;
22268;SDS011;11303;50.772;19.670;2023-05-25T11:05:45;17.40;;;12.25;;
22268;SDS011;11303;50.772;19.670;2023-05-25T11:07:51;14.43;;;11.93;;
22268;SDS011;11303;50.772;19.670;2023-05-25T11:09:55;20.58;;;13.05;;
22268;SDS011;11303;50.772;19.670;2023-05-25T11:14:02;14.35;;;11.30;;
22268;SDS011;11303;50.772;19.670;2023-05-25T11:16:07;22.40;;;12.65;;
22268;SDS011;11303;50.772;19.670;2023-05-25T11:18:15;23.52;;;12.73;;
22268;SDS011;11303;50.772;19.670;2023-05-25T11:20:21;16.70;;;12.65;;
22268;SDS011;11303;50.772;19.670;2023-05-25T11:22:33;16.42;;;12.73;;
22268;SDS011;11303;50.772;19.670;2023-05-25T11:24:36;17.40;;;12.25;;
22268;SDS011;11303;50.772;19.670;2023-05-25T11:26:50;17.25;;;12.45;;
22268;SDS011;11303;50.772;19.670;2023-05-25T11:28:55;21.30;;;12.98;;
22268;SDS011;11303;50.772;19.670;2023-05-25T11:30:59;15.93;;;12.48;;
22268;SDS011;11303;50.772;19.670;2023-05-25T11:33:02;22.27;;;14.07;;
22268;SDS011;11303;50.772;19.670;2023-05-25T11:35:05;15.43;;;12.32;;
22268;SDS011;11303;50.772;19.670;2023-05-25T11:37:09;19.60;;;13.30;;
22268;SDS011;11303;50.772;19.670;2023-05-25T11:39:12;18.95;;;12.15;;
22268;SDS011;11303;50.772;19.670;2023-05-25T11:41:22;20.88;;;13.20;;
22268;SDS011;11303;50.772;19.670;2023-05-25T11:43:24;17.25;;;11.68;;
22268;SDS011;11303;50.772;19.670;2023-05-25T11:45:32;16.27;;;12.90;;
22268;SDS011;11303;50.772;19.670;2023-05-25T11:47:34;19.20;;;12.38;;
22268;SDS011;11303;50.772;19.670;2023-05-25T11:49:38;18.20;;;13.45;;
22268;SDS011;11303;50.772;19.670;2023-05-25T11:51:42;17.23;;;12.98;;
22268;SDS011;11303;50.772;19.670;2023-05-25T11:53:44;18.15;;;13.35;;
22268;SDS011;11303;50.772;19.670;2023-05-25T11:55:49;17.00;;;13.55;;
22268;SDS011;11303;50.772;19.670;2023-05-25T11:58:03;19.23;;;13.45;;
22268;SDS011;11303;50.772;19.670;2023-05-25T12:00:06;22.15;;;14.95;;
22268;SDS011;11303;50.772;19.670;2023-05-25T12:02:11;27.65;;;15.23;;
22268;SDS011;11303;50.772;19.670;2023-05-25T12:04:12;17.48;;;13.40;;
22268;SDS011;11303;50.772;19.670;2023-05-25T12:06:27;19.33;;;14.20;;